createdAt,value
2018-03-01T00:00:46.840Z,10.77
2018-03-01T00:03:15.064Z,10.17
2018-03-01T00:05:42.541Z,11.00
2018-03-01T00:08:10.876Z,10.53
2018-03-01T00:10:38.421Z,10.60
2018-03-01T00:13:05.921Z,11.23
2018-03-01T00:15:33.940Z,10.93
2018-03-01T00:18:01.442Z,11.30
2018-03-01T00:20:30.715Z,9.97
2018-03-01T00:22:58.333Z,11.67
2018-03-01T00:25:25.877Z,11.93
2018-03-01T00:27:53.664Z,11.13
2018-03-01T00:30:21.150Z,10.80
2018-03-01T00:32:52.085Z,11.80
2018-03-01T00:35:19.596Z,10.93
2018-03-01T00:37:50.361Z,11.80
2018-03-01T00:40:18.616Z,10.37
2018-03-01T00:42:46.820Z,10.97
2018-03-01T00:45:15.694Z,11.67
2018-03-01T00:47:43.196Z,11.43
2018-03-01T00:50:12.888Z,11.77
2018-03-01T00:52:40.360Z,11.57
2018-03-01T00:55:09.092Z,10.63
2018-03-01T00:57:37.385Z,11.40
2018-03-01T01:00:04.904Z,11.10
2018-03-01T01:02:33.208Z,10.57
2018-03-01T01:05:00.861Z,11.70
2018-03-01T01:07:28.867Z,10.97
2018-03-01T01:09:57.201Z,10.47
2018-03-01T01:12:24.759Z,11.20
2018-03-01T01:14:52.700Z,12.80
2018-03-01T01:17:20.221Z,10.73
2018-03-01T01:19:49.956Z,10.67
2018-03-01T01:22:17.445Z,10.47
2018-03-01T01:24:44.932Z,10.87
2018-03-01T01:27:13.520Z,11.73
2018-03-01T01:29:40.992Z,11.80
2018-03-01T01:32:09.173Z,12.00
2018-03-01T01:34:36.652Z,11.70
2018-03-01T01:37:05.056Z,10.40
2018-03-01T01:39:32.999Z,10.63
2018-03-01T01:42:02.417Z,11.00
2018-03-01T01:44:31.866Z,11.57
2018-03-01T01:46:59.393Z,11.33
2018-03-01T01:49:27.019Z,11.30
2018-03-01T01:51:55.345Z,10.77
2018-03-01T01:54:23.169Z,11.87
2018-03-01T01:56:53.535Z,10.63
2018-03-01T01:59:21.044Z,10.97
2018-03-01T02:01:49.497Z,10.97
2018-03-01T02:04:16.997Z,10.03
2018-03-01T02:06:44.492Z,11.70
2018-03-01T02:09:13.212Z,11.17
2018-03-01T02:11:41.525Z,11.00
2018-03-01T02:14:09.569Z,10.27
2018-03-01T02:16:37.070Z,11.23
2018-03-01T02:19:05.404Z,11.40
2018-03-01T02:21:36.244Z,10.50
2018-03-01T02:24:03.752Z,10.37
2018-03-01T02:26:34.308Z,9.93
2018-03-01T02:29:02.833Z,10.87
2018-03-01T02:31:32.821Z,10.80
2018-03-01T02:34:00.387Z,10.07
2018-03-01T02:36:33.127Z,8.97
2018-03-01T02:39:00.624Z,10.87
2018-03-01T02:41:28.176Z,10.90
2018-03-01T02:43:55.932Z,10.13
2018-03-01T02:46:23.608Z,11.37
2018-03-01T02:48:54.962Z,9.93
2018-03-01T02:51:22.486Z,10.13
2018-03-01T02:53:52.268Z,11.00
2018-03-01T02:56:19.814Z,11.00
2018-03-01T02:58:48.130Z,9.60
2018-03-01T03:01:15.805Z,10.67
2018-03-01T03:03:43.348Z,9.77
2018-03-01T03:06:13.014Z,10.70
2018-03-01T03:08:40.541Z,10.93
2018-03-01T03:11:08.033Z,10.47
2018-03-01T03:13:36.036Z,9.97
2018-03-01T03:16:03.552Z,9.53
2018-03-01T03:18:33.602Z,9.77
2018-03-01T03:21:01.859Z,10.17
2018-03-01T03:23:29.380Z,11.43
2018-03-01T03:25:56.962Z,9.93
2018-03-01T03:28:24.489Z,9.97
2018-03-01T03:30:55.314Z,8.93
2018-03-01T03:33:23.154Z,9.87
2018-03-01T03:35:51.212Z,9.87
2018-03-01T03:38:19.455Z,9.23
2018-03-01T03:40:47.686Z,9.77
2018-03-01T03:43:16.500Z,10.33
2018-03-01T03:45:43.970Z,9.57
2018-03-01T03:48:15.032Z,9.27
2018-03-01T03:50:42.517Z,9.93
2018-03-01T03:53:10.006Z,9.73
2018-03-01T03:55:37.519Z,10.07
2018-03-01T03:58:05.768Z,10.10
2018-03-01T04:00:35.196Z,10.03
2018-03-01T04:03:02.892Z,9.87
2018-03-01T04:05:33.529Z,8.90
2018-03-01T04:08:01.810Z,9.10
2018-03-01T04:10:29.317Z,9.50
2018-03-01T04:12:56.824Z,9.17
2018-03-01T04:15:24.357Z,9.40
2018-03-01T04:17:53.883Z,9.47
2018-03-01T04:20:21.401Z,10.50
2018-03-01T04:22:48.901Z,9.83
2018-03-01T04:25:17.677Z,9.97
2018-03-01T04:27:46.775Z,9.97
2018-03-01T04:30:14.881Z,10.13
2018-03-01T04:32:43.136Z,10.10
2018-03-01T04:35:15.957Z,9.43
2018-03-01T04:37:49.484Z,9.53
2018-03-01T04:40:18.006Z,9.70
2018-03-01T04:42:45.491Z,9.77
2018-03-01T04:45:17.582Z,10.27
2018-03-01T04:47:45.087Z,9.87
2018-03-01T04:50:14.683Z,9.60
2018-03-01T04:52:42.170Z,10.37
2018-03-01T04:55:10.422Z,10.70
2018-03-01T04:57:38.905Z,9.20
2018-03-01T05:00:06.458Z,9.90
2018-03-01T05:02:35.125Z,10.77
2018-03-01T05:05:03.352Z,9.83
2018-03-01T05:07:30.884Z,8.93
2018-03-01T05:09:58.399Z,9.60
2018-03-01T05:12:26.144Z,10.10
2018-03-01T05:14:55.038Z,8.93
2018-03-01T05:17:23.354Z,9.83
2018-03-01T05:19:50.846Z,10.33
2018-03-01T05:22:18.346Z,10.57
2018-03-01T05:24:46.878Z,9.57
2018-03-01T05:27:20.741Z,9.80
2018-03-01T05:29:59.924Z,9.73
2018-03-01T05:32:39.830Z,9.53
2018-03-01T05:35:07.899Z,9.33
2018-03-01T05:37:37.631Z,9.53
2018-03-01T05:40:05.112Z,9.93
2018-03-01T05:42:34.972Z,9.60
2018-03-01T05:45:03.304Z,9.73
2018-03-01T05:47:30.846Z,9.30
2018-03-01T05:49:59.114Z,9.43
2018-03-01T05:52:26.604Z,9.90
2018-03-01T05:54:58.174Z,9.37
2018-03-01T05:57:25.703Z,10.47
2018-03-01T05:59:57.508Z,11.47
2018-03-01T06:02:25.801Z,9.43
2018-03-01T06:04:56.900Z,10.00
2018-03-01T06:07:24.439Z,9.40
2018-03-01T06:09:52.949Z,9.17
2018-03-01T06:12:20.581Z,9.50
2018-03-01T06:14:48.802Z,9.33
2018-03-01T06:17:17.321Z,9.53
2018-03-01T06:19:44.800Z,10.50
2018-03-01T06:22:12.316Z,9.40
2018-03-01T06:24:40.584Z,9.43
2018-03-01T06:27:09.230Z,10.20
2018-03-01T06:29:37.697Z,9.47
2018-03-01T06:32:05.194Z,10.03
2018-03-01T06:34:34.365Z,9.90
2018-03-01T06:37:02.661Z,9.17
2018-03-01T06:39:30.116Z,9.23
2018-03-01T06:41:58.976Z,9.87
2018-03-01T06:44:26.578Z,10.00
2018-03-01T06:46:56.738Z,10.33
2018-03-01T06:49:25.053Z,9.40
2018-03-01T06:51:52.552Z,9.90
2018-03-01T06:54:21.774Z,10.20
2018-03-01T06:56:49.410Z,9.27
2018-03-01T06:59:18.992Z,9.27
2018-03-01T07:01:48.009Z,10.50
2018-03-01T07:04:18.372Z,8.73
2018-03-01T07:06:58.700Z,9.93
2018-03-01T07:09:27.175Z,9.70
2018-03-01T07:11:57.124Z,8.83
2018-03-01T07:14:25.375Z,9.43
2018-03-01T07:17:06.029Z,9.30
2018-03-01T07:19:48.484Z,9.10
2018-03-01T07:22:17.554Z,9.80
2018-03-01T07:24:45.075Z,10.43
2018-03-01T07:27:19.710Z,9.37
2018-03-01T07:29:48.156Z,8.27
2018-03-01T07:32:18.939Z,9.67
2018-03-01T07:34:47.325Z,8.97
2018-03-01T07:37:18.470Z,9.67
2018-03-01T07:39:59.082Z,8.77
2018-03-01T07:42:31.881Z,8.73
2018-03-01T07:45:15.271Z,9.40
2018-03-01T07:47:42.762Z,8.63
2018-03-01T07:50:10.260Z,8.90
2018-03-01T07:52:39.446Z,9.37
2018-03-01T07:55:06.948Z,9.30
2018-03-01T07:57:38.658Z,8.87
2018-03-01T08:00:06.662Z,8.60
2018-03-01T08:02:36.837Z,8.60
2018-03-01T08:05:04.315Z,8.50
2018-03-01T08:07:31.842Z,9.50
2018-03-01T08:10:03.192Z,8.77
2018-03-01T08:12:30.698Z,8.63
2018-03-01T08:14:59.992Z,8.87
2018-03-01T08:17:27.500Z,9.60
2018-03-01T08:19:57.673Z,9.67
2018-03-01T08:22:25.206Z,9.97
2018-03-01T08:24:52.741Z,9.80
2018-03-01T08:27:37.912Z,9.60
2018-03-01T08:30:05.523Z,10.03
2018-03-01T08:32:33.991Z,9.83
2018-03-01T08:35:02.609Z,9.10
2018-03-01T08:37:30.887Z,9.60
2018-03-01T08:40:00.375Z,8.80
2018-03-01T08:42:27.896Z,9.20
2018-03-01T08:44:59.173Z,9.80
2018-03-01T08:47:26.759Z,9.27
2018-03-01T08:49:55.469Z,9.63
2018-03-01T08:52:23.101Z,8.97
2018-03-01T08:54:52.729Z,10.67
2018-03-01T08:57:21.088Z,9.17
2018-03-01T08:59:52.266Z,9.63
2018-03-01T09:02:22.404Z,10.20
2018-03-01T09:04:49.955Z,10.60
2018-03-01T09:07:20.406Z,10.23
2018-03-01T09:09:48.113Z,9.93
2018-03-01T09:12:18.481Z,10.43
2018-03-01T09:14:46.889Z,9.60
2018-03-01T09:17:18.216Z,11.07
2018-03-01T09:19:53.378Z,8.70
2018-03-01T09:22:23.186Z,8.60
2018-03-01T09:24:51.143Z,9.07
2018-03-01T09:27:20.319Z,9.50
2018-03-01T09:30:06.713Z,8.80
2018-03-01T09:32:35.944Z,8.53
2018-03-01T09:35:03.474Z,9.63
2018-03-01T09:37:31.765Z,8.63
2018-03-01T09:40:00.686Z,8.33
2018-03-01T09:42:29.290Z,8.47
2018-03-01T09:45:00.583Z,9.17
2018-03-01T09:47:28.107Z,8.20
2018-03-01T09:50:00.232Z,8.47
2018-03-01T09:52:27.771Z,7.60
2018-03-01T09:54:56.736Z,10.07
2018-03-01T09:57:24.290Z,7.83
2018-03-01T09:59:53.289Z,8.17
2018-03-01T10:02:21.562Z,8.60
2018-03-01T10:04:49.475Z,7.43
2018-03-01T10:07:23.352Z,7.27
2018-03-01T10:09:51.879Z,7.30
2018-03-01T10:12:20.770Z,7.00
2018-03-01T10:14:48.303Z,8.40
2018-03-01T10:17:19.587Z,7.30
2018-03-01T10:19:48.162Z,8.03
2018-03-01T10:22:20.949Z,8.30
2018-03-01T10:24:49.207Z,8.27
2018-03-01T10:27:19.931Z,8.03
2018-03-01T10:29:48.045Z,8.70
2018-03-01T10:32:15.575Z,8.20
2018-03-01T10:34:43.058Z,7.47
2018-03-01T10:37:10.522Z,8.73
2018-03-01T10:39:41.929Z,8.20
2018-03-01T10:42:11.746Z,8.10
2018-03-01T10:44:43.065Z,8.93
2018-03-01T10:47:10.581Z,8.90
2018-03-01T10:49:41.716Z,7.90
2018-03-01T10:57:14.100Z,7.90
2018-03-01T10:59:42.829Z,7.37
2018-03-01T11:59:10.368Z,10.38
2018-03-01T12:01:41.616Z,10.88
2018-03-01T12:04:09.101Z,11.02
2018-03-01T12:06:36.672Z,11.80
2018-03-01T12:09:04.158Z,11.75
2018-03-01T12:11:31.951Z,10.15
2018-03-01T12:14:02.687Z,10.50
2018-03-01T12:16:30.232Z,10.93
2018-03-01T12:18:59.038Z,10.95
2018-03-01T12:21:26.592Z,11.00
2018-03-01T12:23:54.125Z,10.67
2018-03-01T12:26:23.571Z,11.03
2018-03-01T12:28:51.444Z,10.60
2018-03-01T12:31:23.117Z,10.80
2018-03-01T12:34:00.321Z,11.25
2018-03-01T12:36:31.585Z,11.05
2018-03-01T12:39:06.606Z,11.25
2018-03-01T12:41:44.746Z,10.90
2018-03-01T12:44:13.937Z,11.48
2018-03-01T12:46:52.486Z,11.55
2018-03-01T12:49:29.046Z,11.50
2018-03-01T12:51:56.854Z,10.68
2018-03-01T12:54:24.534Z,11.30
2018-03-01T12:57:04.791Z,10.95
2018-03-01T12:59:32.272Z,11.20
2018-03-01T13:02:01.850Z,11.37
2018-03-01T13:04:30.154Z,11.30
2018-03-01T13:06:57.705Z,11.75
2018-03-01T13:09:27.857Z,11.55
2018-03-01T13:11:55.416Z,11.35
2018-03-01T13:14:25.318Z,11.27
2018-03-01T13:16:53.618Z,12.10
2018-03-01T13:19:24.708Z,11.25
2018-03-01T13:21:52.239Z,11.52
2018-03-01T13:24:23.858Z,11.50
2018-03-01T13:26:51.960Z,11.98
2018-03-01T13:29:22.382Z,11.73
2018-03-01T13:31:51.543Z,12.02
2018-03-01T13:34:24.639Z,11.63
2018-03-01T13:36:54.451Z,11.85
2018-03-01T13:39:25.581Z,12.18
2018-03-01T13:45:03.700Z,12.05
2018-03-01T13:47:32.551Z,12.37
2018-03-01T13:50:02.757Z,12.33
2018-03-01T13:52:30.914Z,11.98
2018-03-01T13:54:58.569Z,12.15
2018-03-01T13:57:26.842Z,11.93
2018-03-01T13:59:54.393Z,11.63
2018-03-01T14:02:24.651Z,11.63
2018-03-01T14:04:53.210Z,13.88
2018-03-01T14:10:33.774Z,11.98
2018-03-01T14:13:11.985Z,12.05
2018-03-01T14:15:45.481Z,11.80
2018-03-01T14:21:29.860Z,12.68
2018-03-01T14:24:04.176Z,11.50
2018-03-01T14:26:35.418Z,11.40
2018-03-01T14:29:08.381Z,11.82
2018-03-01T14:31:35.874Z,11.90
2018-03-01T14:34:06.597Z,11.32
2018-03-01T14:36:34.865Z,11.82
2018-03-01T14:39:06.117Z,11.68
2018-03-01T14:41:33.809Z,11.50
2018-03-01T14:44:03.098Z,11.38
2018-03-01T14:46:30.622Z,11.15
2018-03-01T14:48:58.164Z,10.73
2018-03-01T14:51:25.660Z,11.90
2018-03-01T14:53:57.333Z,11.07
2018-03-01T14:56:25.951Z,12.05
2018-03-01T15:01:38.261Z,11.70
2018-03-01T15:07:00.644Z,11.77
2018-03-01T15:09:28.941Z,11.95
2018-03-01T15:11:59.507Z,12.00
2018-03-01T15:14:27.963Z,12.10
2018-03-01T15:16:59.320Z,11.48
2018-03-01T15:19:27.600Z,13.23
2018-03-01T15:22:04.416Z,12.07
2018-03-01T15:24:32.650Z,13.68
2018-03-01T15:27:01.542Z,14.43
2018-03-01T15:29:29.043Z,13.95
2018-03-01T15:31:58.913Z,14.35
2018-03-01T15:34:26.632Z,14.52
2018-03-01T15:37:18.207Z,13.73
2018-03-01T15:39:58.869Z,14.27
2018-03-01T15:42:26.742Z,16.62
2018-03-01T15:44:57.943Z,16.10
2018-03-01T15:47:29.470Z,16.83
2018-03-01T15:49:59.179Z,15.82
2018-03-01T15:52:35.794Z,15.70
2018-03-01T15:55:05.574Z,17.20
2018-03-01T15:57:38.562Z,18.10
2018-03-01T16:00:14.636Z,15.90
2018-03-01T16:02:45.051Z,15.97
2018-03-01T16:05:17.137Z,14.67
2018-03-01T16:07:45.655Z,14.70
2018-03-01T16:10:18.280Z,14.33
2018-03-01T16:12:56.925Z,13.40
2018-03-01T16:15:26.870Z,14.37
2018-03-01T16:17:58.607Z,14.40
2018-03-01T16:20:27.109Z,13.43
2018-03-01T16:22:58.880Z,14.73
2018-03-01T16:25:27.724Z,14.27
2018-03-01T16:27:58.798Z,15.40
2018-03-01T16:30:29.734Z,13.90
2018-03-01T16:32:58.855Z,16.83
2018-03-01T16:35:27.290Z,15.43
2018-03-01T16:37:58.903Z,16.70
2018-03-01T16:40:45.837Z,14.60
2018-03-01T16:43:19.369Z,16.30
2018-03-01T16:45:52.623Z,14.50
2018-03-01T16:48:20.097Z,14.23
2018-03-01T16:51:00.901Z,13.60
2018-03-01T16:53:30.889Z,16.90
2018-03-01T16:56:00.119Z,15.27
2018-03-01T16:58:28.246Z,14.20
2018-03-01T17:00:57.281Z,14.13
2018-03-01T17:03:26.370Z,14.37
2018-03-01T17:06:06.749Z,14.07
2018-03-01T17:08:35.304Z,14.47
2018-03-01T17:11:03.734Z,14.17
2018-03-01T17:13:31.260Z,14.37
2018-03-01T17:15:59.168Z,14.13
2018-03-01T17:18:29.286Z,15.43
2018-03-01T17:20:57.294Z,16.10
2018-03-01T17:23:27.808Z,14.90
2018-03-01T17:25:55.434Z,15.43
2018-03-01T17:28:26.904Z,15.97
2018-03-01T17:30:56.541Z,16.77
2018-03-01T17:33:26.548Z,15.13
2018-03-01T17:36:00.074Z,15.03
2018-03-01T17:38:27.676Z,16.80
2018-03-01T17:40:59.406Z,16.63
2018-03-01T17:43:28.742Z,15.73
2018-03-01T17:48:40.729Z,17.83
2018-03-01T17:51:17.113Z,15.53
2018-03-01T17:53:48.959Z,14.90
2018-03-01T17:56:21.020Z,14.63
2018-03-01T17:59:03.914Z,15.23
2018-03-01T18:01:31.704Z,14.00
2018-03-01T18:03:59.903Z,14.23
2018-03-01T18:06:27.662Z,15.30
2018-03-01T18:09:05.336Z,14.80
2018-03-01T18:11:33.692Z,14.17
2018-03-01T18:14:03.058Z,15.17
2018-03-01T18:16:35.398Z,13.63
2018-03-01T18:19:07.290Z,14.93
2018-03-01T18:21:34.790Z,14.97
2018-03-01T18:24:08.446Z,15.97
2018-03-01T18:26:36.010Z,14.83
2018-03-01T18:29:06.903Z,15.17
2018-03-01T18:31:35.263Z,15.83
2018-03-01T18:34:05.460Z,17.23
2018-03-01T18:36:33.007Z,18.63
2018-03-01T18:39:04.617Z,16.20
2018-03-01T18:41:32.141Z,18.87
2018-03-01T18:44:00.486Z,21.47
2018-03-01T18:46:29.873Z,19.60
2018-03-01T18:48:58.235Z,17.40
2018-03-01T18:51:29.035Z,15.47
2018-03-01T18:54:01.778Z,17.70
2018-03-01T18:56:30.434Z,17.10
2018-03-01T18:59:01.558Z,16.23
2018-03-01T19:01:30.842Z,16.37
2018-03-01T19:04:00.721Z,81.12
2018-03-01T19:06:29.570Z,20.65
2018-03-01T19:09:01.974Z,14.47
2018-03-01T19:11:29.593Z,14.67
2018-03-01T19:16:58.702Z,33.20
2018-03-01T19:19:28.904Z,50.37
2018-03-01T19:22:22.932Z,40.57
2018-03-01T19:24:59.937Z,13.47
2018-03-01T19:27:30.250Z,13.90
2018-03-01T20:27:25.530Z,22.03
2018-03-01T20:30:02.194Z,17.07
2018-03-01T20:32:30.823Z,20.17
2018-03-01T20:35:23.708Z,17.17
2018-03-01T20:38:03.516Z,17.30
2018-03-01T20:40:33.143Z,19.47
2018-03-01T20:43:25.830Z,17.53
2018-03-01T20:46:23.328Z,18.27
2018-03-01T20:54:38.228Z,16.87
2018-03-01T20:57:29.714Z,17.87
2018-03-01T20:59:59.906Z,20.23
2018-03-01T21:02:34.156Z,20.53
2018-03-01T21:08:30.352Z,17.97
2018-03-01T21:11:00.112Z,17.17
2018-03-01T21:13:30.631Z,17.13
2018-03-01T21:16:19.387Z,17.70
2018-03-01T21:19:01.491Z,17.77
2018-03-01T21:21:31.410Z,17.00
2018-03-01T21:24:02.959Z,18.13
2018-03-01T21:29:28.398Z,18.13
2018-03-01T21:32:00.810Z,18.37
2018-03-01T21:34:30.129Z,19.00
2018-03-01T21:37:03.232Z,19.40
2018-03-01T21:39:30.813Z,18.83
2018-03-01T21:42:05.014Z,19.73
2018-03-01T21:44:35.832Z,17.67
2018-03-01T21:50:00.280Z,18.43
2018-03-01T21:52:30.168Z,19.67
2018-03-01T21:55:01.865Z,18.90
2018-03-01T21:57:30.559Z,19.03
2018-03-01T22:00:07.019Z,19.27
2018-03-01T22:02:34.604Z,22.33
2018-03-01T22:05:04.085Z,20.70
2018-03-01T22:07:31.663Z,21.60
2018-03-01T22:10:27.239Z,19.97
2018-03-01T22:13:08.269Z,19.57
2018-03-01T22:15:59.229Z,21.20
2018-03-01T22:18:30.681Z,18.87
2018-03-01T22:21:07.764Z,19.77
2018-03-01T22:23:35.578Z,20.13
2018-03-01T22:26:06.018Z,19.90
2018-03-01T22:31:29.541Z,19.33
2018-03-01T22:34:00.700Z,19.70
2018-03-01T22:36:33.334Z,19.17
2018-03-01T22:39:02.313Z,19.77
2018-03-01T22:41:34.428Z,18.90
2018-03-01T22:44:02.792Z,19.50
2018-03-01T22:46:35.243Z,20.40
2018-03-01T22:49:04.204Z,19.73
2018-03-01T22:51:32.937Z,20.07
2018-03-01T22:54:05.039Z,20.20
2018-03-01T22:56:32.584Z,19.57
2018-03-01T22:59:02.868Z,19.47
2018-03-01T23:01:32.683Z,19.47
2018-03-01T23:04:06.717Z,19.67
2018-03-01T23:06:34.313Z,19.67
2018-03-01T23:09:04.068Z,20.27
2018-03-01T23:11:35.348Z,18.93
2018-03-01T23:14:05.535Z,19.73
2018-03-01T23:16:33.602Z,20.30
2018-03-01T23:19:22.969Z,19.40
2018-03-01T23:21:59.237Z,18.70
2018-03-01T23:24:31.081Z,20.77
2018-03-01T23:27:02.439Z,17.10
2018-03-01T23:29:32.400Z,21.10
2018-03-01T23:32:03.704Z,19.67
2018-03-01T23:34:34.969Z,20.33
2018-03-01T23:37:04.601Z,18.00
2018-03-01T23:39:36.616Z,18.60
2018-03-01T23:42:04.484Z,18.67
2018-03-01T23:44:34.134Z,19.93
2018-03-01T23:47:03.788Z,20.27
2018-03-01T23:49:49.166Z,19.17
2018-03-01T23:52:16.711Z,18.33
2018-03-01T23:54:44.242Z,20.63
2018-03-01T23:57:11.821Z,20.03
2018-03-01T23:59:59.821Z,19.53
